createdAt,value
2022-12-03T00:01:28.642Z,51.70
2022-12-03T00:03:56.701Z,47.50
2022-12-03T00:06:25.688Z,47.30
2022-12-03T00:08:55.103Z,46.70
2022-12-03T00:11:23.002Z,45.40
2022-12-03T00:13:50.896Z,45.00
2022-12-03T00:16:18.918Z,46.50
2022-12-03T00:18:46.803Z,50.30
2022-12-03T00:21:14.718Z,47.40
2022-12-03T00:23:42.672Z,47.30
2022-12-03T00:26:10.620Z,48.60
2022-12-03T00:28:38.563Z,46.10
2022-12-03T00:31:06.616Z,48.60
2022-12-03T00:33:34.534Z,49.50
2022-12-03T00:36:02.424Z,52.30
2022-12-03T00:38:30.317Z,50.80
2022-12-03T00:40:58.177Z,52.80
2022-12-03T00:43:32.682Z,51.90
2022-12-03T00:48:28.646Z,50.30
2022-12-03T00:50:56.518Z,51.50
2022-12-03T00:53:24.415Z,50.70
2022-12-03T00:55:52.371Z,50.50
2022-12-03T00:58:20.285Z,46.10
2022-12-03T01:00:48.214Z,47.10
2022-12-03T01:03:16.178Z,45.70
2022-12-03T01:05:47.783Z,46.10
2022-12-03T01:08:15.799Z,45.80
2022-12-03T01:10:43.808Z,48.00
2022-12-03T01:13:11.705Z,48.10
2022-12-03T01:15:39.671Z,46.70
2022-12-03T01:18:07.718Z,45.50
2022-12-03T01:20:36.563Z,45.80
2022-12-03T01:23:04.917Z,43.80
2022-12-03T01:25:32.824Z,48.40
2022-12-03T01:28:00.820Z,48.70
2022-12-03T01:30:28.805Z,51.80
2022-12-03T01:32:56.690Z,48.60
2022-12-03T01:35:24.558Z,46.80
2022-12-03T01:37:52.453Z,43.50
2022-12-03T01:40:22.089Z,46.50
2022-12-03T01:42:50.045Z,48.60
2022-12-03T01:45:23.005Z,48.20
2022-12-03T01:47:51.189Z,47.70
2022-12-03T01:50:30.285Z,45.60
2022-12-03T01:53:01.573Z,48.50
2022-12-03T01:55:29.949Z,45.00
2022-12-03T01:58:00.888Z,47.80
2022-12-03T02:00:30.048Z,46.90
2022-12-03T02:03:01.441Z,49.70
2022-12-03T02:05:31.836Z,51.50
2022-12-03T02:08:00.303Z,46.80
2022-12-03T02:10:32.473Z,46.10
2022-12-03T02:13:04.843Z,46.60
2022-12-03T02:15:32.854Z,44.00
2022-12-03T02:18:00.883Z,49.20
2022-12-03T02:20:33.383Z,50.90
2022-12-03T02:23:13.763Z,51.40
2022-12-03T02:25:41.649Z,50.30
2022-12-03T02:28:10.125Z,48.00
2022-12-03T02:30:38.096Z,50.50
2022-12-03T02:33:06.290Z,48.90
2022-12-03T02:35:35.992Z,52.20
2022-12-03T02:38:17.190Z,52.80
2022-12-03T02:40:47.173Z,50.20
2022-12-03T02:43:18.184Z,51.80
2022-12-03T02:45:50.905Z,50.20
2022-12-03T02:48:32.664Z,49.40
2022-12-03T02:51:05.355Z,52.50
2022-12-03T02:53:42.527Z,52.60
2022-12-03T02:56:13.858Z,54.70
2022-12-03T02:58:45.889Z,52.90
2022-12-03T03:01:17.133Z,50.60
2022-12-03T03:03:46.905Z,51.30
2022-12-03T03:06:16.012Z,52.50
2022-12-03T03:08:44.199Z,54.50
2022-12-03T03:11:12.217Z,57.00
2022-12-03T03:13:40.771Z,53.00
2022-12-03T03:16:09.111Z,52.70
2022-12-03T03:18:37.278Z,51.00
2022-12-03T03:21:05.485Z,53.40
2022-12-03T03:23:33.638Z,52.30
2022-12-03T03:26:10.501Z,54.10
2022-12-03T03:28:42.692Z,56.90
2022-12-03T03:31:13.218Z,61.80
2022-12-03T03:33:43.667Z,57.20
2022-12-03T03:36:13.173Z,56.00
2022-12-03T03:38:41.937Z,55.80
2022-12-03T03:41:12.686Z,53.80
2022-12-03T03:43:42.467Z,57.50
2022-12-03T03:46:12.163Z,61.60
2022-12-03T03:48:42.790Z,61.20
2022-12-03T03:51:11.878Z,57.50
2022-12-03T03:53:43.016Z,54.90
2022-12-03T03:56:11.741Z,55.90
2022-12-03T03:58:39.731Z,55.30
2022-12-03T04:01:09.550Z,55.10
2022-12-03T04:03:37.557Z,57.90
2022-12-03T04:06:06.396Z,57.30
2022-12-03T04:08:34.391Z,57.10
2022-12-03T04:11:20.851Z,56.00
2022-12-03T04:13:48.814Z,54.90
2022-12-03T04:16:16.813Z,52.90
2022-12-03T04:18:44.967Z,56.70
2022-12-03T04:21:39.959Z,59.60
2022-12-03T04:24:10.617Z,59.30
2022-12-03T04:26:57.077Z,59.10
2022-12-03T04:29:25.169Z,59.00
2022-12-03T04:32:11.373Z,55.70
2022-12-03T04:34:57.801Z,57.40
2022-12-03T04:37:25.886Z,61.00
2022-12-03T04:39:53.776Z,62.90
2022-12-03T04:42:21.854Z,63.90
2022-12-03T04:44:50.173Z,56.30
2022-12-03T04:47:20.143Z,57.90
2022-12-03T04:49:51.599Z,59.30
2022-12-03T04:52:20.866Z,59.20
2022-12-03T04:54:48.936Z,60.50
2022-12-03T04:57:17.401Z,60.60
2022-12-03T04:59:45.328Z,61.60
2022-12-03T05:02:13.350Z,61.00
2022-12-03T05:04:41.977Z,56.10
2022-12-03T05:07:11.501Z,56.10
2022-12-03T05:09:39.488Z,56.70
2022-12-03T05:12:07.454Z,57.70
2022-12-03T05:14:36.518Z,61.90
2022-12-03T05:17:04.503Z,61.30
2022-12-03T05:19:50.737Z,62.30
2022-12-03T05:22:18.638Z,58.90
2022-12-03T05:24:46.566Z,60.50
2022-12-03T05:27:15.802Z,60.00
2022-12-03T05:29:46.743Z,60.30
2022-12-03T05:32:15.119Z,60.50
2022-12-03T05:34:43.001Z,58.40
2022-12-03T05:37:11.183Z,62.30
2022-12-03T05:39:39.050Z,58.70
2022-12-03T05:42:25.365Z,54.40
2022-12-03T05:44:53.527Z,61.00
2022-12-03T05:47:21.540Z,58.50
2022-12-03T05:49:49.449Z,62.50
2022-12-03T05:52:17.315Z,61.20
2022-12-03T05:54:45.187Z,62.70
2022-12-03T05:57:13.106Z,60.10
2022-12-03T05:59:40.981Z,59.70
2022-12-03T06:02:08.936Z,60.20
2022-12-03T06:04:38.874Z,59.00
2022-12-03T06:07:11.039Z,56.80
2022-12-03T06:09:41.827Z,61.70
2022-12-03T06:12:09.842Z,59.20
2022-12-03T06:14:37.742Z,62.70
2022-12-03T06:17:05.672Z,58.40
2022-12-03T06:19:34.189Z,60.70
2022-12-03T06:22:02.138Z,59.30
2022-12-03T06:24:30.131Z,56.50
2022-12-03T06:26:58.027Z,58.90
2022-12-03T06:29:25.925Z,63.10
2022-12-03T06:31:53.862Z,63.10
2022-12-03T06:34:21.757Z,65.50
2022-12-03T06:36:50.374Z,63.80
2022-12-03T06:39:18.290Z,60.30
2022-12-03T06:41:46.208Z,59.00
2022-12-03T06:44:14.253Z,61.00
2022-12-03T06:46:42.559Z,64.20
2022-12-03T06:49:10.556Z,64.80
2022-12-03T06:51:38.525Z,67.40
2022-12-03T06:54:06.665Z,68.50
2022-12-03T06:56:39.058Z,61.30
2022-12-03T06:59:11.305Z,64.60
2022-12-03T07:01:39.242Z,65.90
2022-12-03T07:04:07.159Z,66.90
2022-12-03T07:06:35.087Z,67.00
2022-12-03T07:09:03.859Z,68.20
2022-12-03T07:11:31.756Z,71.00
2022-12-03T07:14:05.019Z,70.40
2022-12-03T07:16:35.552Z,72.50
2022-12-03T07:19:05.323Z,63.50
2022-12-03T07:21:33.284Z,63.10
2022-12-03T07:24:01.665Z,66.30
2022-12-03T07:26:29.982Z,68.60
2022-12-03T07:28:58.473Z,72.60
2022-12-03T07:31:26.811Z,74.50
2022-12-03T07:33:55.445Z,72.50
2022-12-03T07:36:23.402Z,74.70
2022-12-03T07:38:51.341Z,67.80
2022-12-03T07:41:19.271Z,64.90
2022-12-03T07:43:47.191Z,69.10
2022-12-03T07:46:15.813Z,69.70
2022-12-03T07:48:43.752Z,67.20
2022-12-03T07:51:15.257Z,69.70
2022-12-03T07:53:43.677Z,68.00
2022-12-03T07:56:11.639Z,66.00
2022-12-03T07:58:39.892Z,68.10
2022-12-03T08:01:07.887Z,70.40
2022-12-03T08:03:36.244Z,64.90
2022-12-03T08:06:05.155Z,63.10
2022-12-03T08:08:33.011Z,61.90
2022-12-03T08:11:02.263Z,61.10
2022-12-03T08:13:30.566Z,64.80
2022-12-03T08:16:02.072Z,69.60
2022-12-03T08:18:29.992Z,67.80
2022-12-03T08:20:58.278Z,74.10
2022-12-03T08:23:26.435Z,72.50
2022-12-03T08:25:54.374Z,67.00
2022-12-03T08:28:25.856Z,76.10
2022-12-03T08:31:07.646Z,75.80
2022-12-03T08:33:37.556Z,75.70
2022-12-03T08:40:51.241Z,73.90
2022-12-03T08:43:22.181Z,67.20
2022-12-03T08:45:51.962Z,66.50
2022-12-03T08:48:40.723Z,68.60
2022-12-03T08:51:19.144Z,66.90
2022-12-03T08:53:49.598Z,65.80
2022-12-03T08:56:27.564Z,65.80
2022-12-03T08:59:03.009Z,68.70
2022-12-03T09:01:34.432Z,67.20
2022-12-03T09:04:19.374Z,74.50
2022-12-03T09:09:16.239Z,74.30
2022-12-03T09:11:44.453Z,72.90
2022-12-03T09:14:18.378Z,74.00
2022-12-03T09:16:48.017Z,74.50
2022-12-03T09:19:16.271Z,74.20
2022-12-03T09:21:44.819Z,78.70
2022-12-03T09:24:12.732Z,79.20
2022-12-03T09:26:40.643Z,78.90
2022-12-03T09:29:12.163Z,83.10
2022-12-03T09:31:41.259Z,88.20
2022-12-03T09:34:10.010Z,83.90
2022-12-03T09:36:38.040Z,80.10
2022-12-03T09:39:06.806Z,77.80
2022-12-03T09:41:34.957Z,74.60
2022-12-03T09:44:04.450Z,70.70
2022-12-03T09:46:36.215Z,79.60
2022-12-03T09:49:12.360Z,88.30
2022-12-03T09:51:45.121Z,69.60
2022-12-03T09:54:26.409Z,69.00
2022-12-03T09:56:56.141Z,66.80
2022-12-03T09:59:27.840Z,70.70
2022-12-03T10:01:56.170Z,66.10
2022-12-03T10:04:24.691Z,67.30
2022-12-03T10:06:52.733Z,67.40
2022-12-03T10:09:28.986Z,68.10
2022-12-03T10:11:59.109Z,74.30
2022-12-03T10:14:27.929Z,71.70
2022-12-03T10:16:56.648Z,72.70
2022-12-03T10:19:27.528Z,73.50
2022-12-03T10:21:55.873Z,74.10
2022-12-03T10:24:32.426Z,76.00
2022-12-03T10:27:03.166Z,71.10
2022-12-03T10:29:37.258Z,68.80
2022-12-03T10:32:10.500Z,67.10
2022-12-03T10:34:40.428Z,70.30
2022-12-03T10:37:11.254Z,68.40
2022-12-03T10:39:59.313Z,62.20
2022-12-03T10:42:30.584Z,69.40
2022-12-03T10:45:14.535Z,71.30
2022-12-03T10:47:44.186Z,69.70
2022-12-03T10:50:19.623Z,69.50
2022-12-03T10:52:48.070Z,68.70
2022-12-03T10:55:16.393Z,70.80
2022-12-03T10:57:46.380Z,74.70
2022-12-03T11:00:19.672Z,73.00
2022-12-03T11:02:56.127Z,71.70
2022-12-03T11:05:27.539Z,70.50
2022-12-03T11:07:56.221Z,73.10
2022-12-03T11:10:25.104Z,79.50
2022-12-03T11:13:36.732Z,74.80
2022-12-03T11:16:10.846Z,80.40
2022-12-03T11:18:38.833Z,73.70
2022-12-03T11:21:08.601Z,78.90
2022-12-03T11:23:45.562Z,73.70
2022-12-03T11:26:18.812Z,73.20
2022-12-03T11:28:47.677Z,74.50
2022-12-03T11:31:47.802Z,72.10
2022-12-03T11:34:18.940Z,70.50
2022-12-03T11:37:11.559Z,77.80
2022-12-03T11:39:48.152Z,68.80
2022-12-03T11:42:25.682Z,68.50
2022-12-03T11:45:02.915Z,71.60
2022-12-03T11:47:42.135Z,75.50
2022-12-03T11:50:28.304Z,76.60
2022-12-03T11:53:08.761Z,76.70
2022-12-03T11:55:40.267Z,73.70
2022-12-03T11:58:24.710Z,75.80
2022-12-03T12:00:56.500Z,73.80
2022-12-03T12:03:27.976Z,80.20
2022-12-03T12:06:11.245Z,86.70
2022-12-03T12:08:42.103Z,86.30
2022-12-03T12:11:33.324Z,78.60
2022-12-03T12:14:06.227Z,77.40
2022-12-03T12:16:43.277Z,75.80
2022-12-03T12:19:40.145Z,84.00
2022-12-03T12:22:13.972Z,90.50
2022-12-03T12:24:47.095Z,92.50
2022-12-03T12:27:19.809Z,86.00
2022-12-03T12:29:56.778Z,84.10
2022-12-03T12:32:45.916Z,82.50
2022-12-03T12:35:14.511Z,76.20
2022-12-03T12:38:00.185Z,79.80
2022-12-03T12:40:30.767Z,78.50
2022-12-03T12:43:12.027Z,83.90
2022-12-03T12:45:43.446Z,82.00
2022-12-03T12:48:41.011Z,80.00
2022-12-03T12:51:19.723Z,78.10
2022-12-03T12:53:48.997Z,77.90
2022-12-03T12:56:27.390Z,83.10
2022-12-03T12:58:59.383Z,86.40
2022-12-03T13:01:30.919Z,90.90
2022-12-03T13:03:59.646Z,85.80
2022-12-03T13:06:35.316Z,100.70
2022-12-03T13:09:03.316Z,89.00
2022-12-03T13:11:37.125Z,80.10
2022-12-03T13:14:20.268Z,85.60
2022-12-03T13:16:50.670Z,91.90
2022-12-03T13:19:27.143Z,91.60
2022-12-03T13:21:57.576Z,82.80
2022-12-03T13:24:34.478Z,82.60
2022-12-03T13:27:20.616Z,85.10
2022-12-03T13:29:57.021Z,86.90
2022-12-03T13:32:32.484Z,84.30
2022-12-03T13:35:30.659Z,87.70
2022-12-03T13:37:59.331Z,84.60
2022-12-03T13:40:31.556Z,82.50
2022-12-03T13:43:19.367Z,77.40
2022-12-03T13:45:50.075Z,70.70
2022-12-03T13:48:34.778Z,81.90
2022-12-03T13:51:19.695Z,78.60
2022-12-03T13:56:28.813Z,84.10
2022-12-03T13:59:00.157Z,82.80
2022-12-03T14:01:29.016Z,76.30
2022-12-03T14:03:57.100Z,73.60
2022-12-03T14:06:25.037Z,75.30
2022-12-03T14:08:53.057Z,75.10
2022-12-03T14:11:39.381Z,68.50
2022-12-03T14:14:07.423Z,72.80
2022-12-03T14:16:35.410Z,85.30
2022-12-03T14:19:03.657Z,79.10
2022-12-03T14:21:31.595Z,68.80
2022-12-03T14:23:59.480Z,72.30
2022-12-03T14:26:27.335Z,67.30
2022-12-03T14:29:04.682Z,84.80
2022-12-03T14:31:35.226Z,86.00
2022-12-03T14:34:03.213Z,82.20
2022-12-03T14:36:31.083Z,78.20
2022-12-03T14:38:59.075Z,78.40
2022-12-03T14:41:45.502Z,76.50
2022-12-03T14:44:13.422Z,77.80
2022-12-03T14:46:41.656Z,78.60
2022-12-03T14:49:09.586Z,80.80
2022-12-03T14:51:37.492Z,78.10
2022-12-03T14:54:06.384Z,72.90
2022-12-03T14:56:34.261Z,72.20
2022-12-03T14:59:02.321Z,75.00
2022-12-03T15:01:30.411Z,82.90
2022-12-03T15:03:58.324Z,79.20
2022-12-03T15:06:26.248Z,75.60
2022-12-03T15:08:54.279Z,70.70
2022-12-03T15:11:22.339Z,75.30
2022-12-03T15:13:50.225Z,72.60
2022-12-03T15:16:18.123Z,78.50
2022-12-03T15:18:46.773Z,79.10
2022-12-03T15:21:14.689Z,80.70
2022-12-03T15:23:42.653Z,74.20
2022-12-03T15:26:10.658Z,74.00
2022-12-03T15:28:38.568Z,79.00
2022-12-03T15:31:06.518Z,76.60
2022-12-03T15:33:34.467Z,79.50
2022-12-03T15:36:02.398Z,76.80
2022-12-03T15:38:30.356Z,84.50
2022-12-03T15:40:58.356Z,81.30
2022-12-03T15:43:26.253Z,74.40
2022-12-03T15:45:54.582Z,75.50
2022-12-03T15:48:22.602Z,74.10
2022-12-03T15:50:50.467Z,72.00
2022-12-03T15:53:18.575Z,90.10
2022-12-03T15:55:47.213Z,80.00
2022-12-03T15:58:15.139Z,82.00
2022-12-03T16:00:43.022Z,72.20
2022-12-03T16:03:10.979Z,70.50
2022-12-03T16:05:38.952Z,70.90
2022-12-03T16:08:07.280Z,72.30
2022-12-03T16:10:35.243Z,79.60
2022-12-03T16:13:03.139Z,84.10
2022-12-03T16:15:31.177Z,71.60
2022-12-03T16:17:59.359Z,74.50
2022-12-03T16:20:27.540Z,74.00
2022-12-03T16:22:55.533Z,77.20
2022-12-03T16:25:23.429Z,77.20
2022-12-03T16:27:51.372Z,76.00
2022-12-03T16:30:19.303Z,80.70
2022-12-03T16:32:47.239Z,86.50
2022-12-03T16:35:15.144Z,76.60
2022-12-03T16:37:43.089Z,72.90
2022-12-03T16:40:11.649Z,67.80
2022-12-03T16:42:39.745Z,75.70
2022-12-03T16:45:08.755Z,70.00
2022-12-03T16:47:36.909Z,71.80
2022-12-03T16:50:07.747Z,70.40
2022-12-03T16:53:25.460Z,64.90
2022-12-03T16:55:53.374Z,66.90
2022-12-03T16:58:21.634Z,62.00
2022-12-03T17:00:53.404Z,63.10
2022-12-03T17:03:22.841Z,68.10
2022-12-03T17:05:54.833Z,65.00
2022-12-03T17:08:25.084Z,64.70
2022-12-03T17:10:53.015Z,63.70
2022-12-03T17:13:23.261Z,62.50
2022-12-03T17:15:51.340Z,67.50
2022-12-03T17:18:19.292Z,71.80
2022-12-03T17:20:47.272Z,68.50
2022-12-03T17:23:15.526Z,66.40
2022-12-03T17:25:43.588Z,68.40
2022-12-03T17:28:11.528Z,64.20
2022-12-03T17:30:39.530Z,62.70
2022-12-03T17:33:07.448Z,69.00
2022-12-03T17:35:35.322Z,62.90
2022-12-03T17:38:03.390Z,62.90
2022-12-03T17:40:31.415Z,62.10
2022-12-03T17:42:59.318Z,64.30
2022-12-03T17:45:27.208Z,65.60
2022-12-03T17:47:55.293Z,60.20
2022-12-03T17:50:25.818Z,63.30
2022-12-03T17:52:53.770Z,64.10
2022-12-03T17:55:33.866Z,62.70
2022-12-03T17:58:06.770Z,59.50
2022-12-03T18:00:34.834Z,64.50
2022-12-03T18:03:02.750Z,62.20
2022-12-03T18:05:30.612Z,61.40
2022-12-03T18:07:58.580Z,66.50
2022-12-03T18:10:28.795Z,62.60
2022-12-03T18:13:01.481Z,65.10
2022-12-03T18:15:30.962Z,67.00
2022-12-03T18:17:58.857Z,68.80
2022-12-03T18:20:26.870Z,67.80
2022-12-03T18:22:54.843Z,67.30
2022-12-03T18:25:22.835Z,68.20
2022-12-03T18:27:50.736Z,72.70
2022-12-03T18:30:20.883Z,68.20
2022-12-03T18:32:49.742Z,65.00
2022-12-03T18:35:18.119Z,65.60
2022-12-03T18:37:46.291Z,66.70
2022-12-03T18:40:20.182Z,64.30
2022-12-03T18:42:48.240Z,68.80
2022-12-03T18:45:18.961Z,70.00
2022-12-03T18:47:47.006Z,67.90
2022-12-03T18:50:15.008Z,65.50
2022-12-03T18:52:43.145Z,63.50
2022-12-03T18:55:17.916Z,62.00
2022-12-03T18:57:45.898Z,68.80
2022-12-03T19:00:14.874Z,70.80
2022-12-03T19:03:12.771Z,71.90
2022-12-03T19:05:40.823Z,52.70
2022-12-03T19:08:14.610Z,70.20
2022-12-03T19:10:45.686Z,65.30
2022-12-03T19:13:13.569Z,65.90
2022-12-03T19:15:41.515Z,63.60
2022-12-03T19:18:09.499Z,62.50
2022-12-03T19:20:40.509Z,59.20
2022-12-03T19:23:09.112Z,64.70
2022-12-03T19:25:39.683Z,69.60
2022-12-03T19:28:08.079Z,64.80
2022-12-03T19:30:36.068Z,65.00
2022-12-03T19:33:04.102Z,63.30
2022-12-03T19:35:41.613Z,60.30
2022-12-03T19:38:09.552Z,63.40
2022-12-03T19:40:37.542Z,62.10
2022-12-03T19:43:05.490Z,61.30
2022-12-03T19:45:36.541Z,58.30
2022-12-03T19:48:04.614Z,59.90
2022-12-03T19:50:34.112Z,62.20
2022-12-03T19:53:02.067Z,64.00
2022-12-03T19:55:29.984Z,61.90
2022-12-03T19:58:00.546Z,61.10
2022-12-03T20:00:28.480Z,63.70
2022-12-03T20:02:58.721Z,63.90
2022-12-03T20:05:31.765Z,64.00
2022-12-03T20:10:29.090Z,60.20
2022-12-03T20:12:57.014Z,69.90
2022-12-03T20:15:25.227Z,68.70
2022-12-03T20:17:53.497Z,66.20
2022-12-03T20:20:23.863Z,64.60
2022-12-03T20:22:51.859Z,68.80
2022-12-03T20:25:19.869Z,63.40
2022-12-03T20:27:47.834Z,61.60
2022-12-03T20:30:15.834Z,64.40
2022-12-03T20:32:45.678Z,66.10
2022-12-03T20:35:13.767Z,64.50
2022-12-03T20:37:41.749Z,62.10
2022-12-03T20:40:10.195Z,63.40
2022-12-03T20:42:41.277Z,62.60
2022-12-03T20:45:09.900Z,63.50
2022-12-03T20:47:39.075Z,62.30
2022-12-03T20:50:07.907Z,65.40
2022-12-03T20:52:38.093Z,61.00
2022-12-03T20:55:06.521Z,60.80
2022-12-03T20:57:37.477Z,60.20
2022-12-03T21:00:08.488Z,58.20
2022-12-03T21:02:37.557Z,59.90
2022-12-03T21:05:06.082Z,63.90
2022-12-03T21:07:34.132Z,67.50
2022-12-03T21:10:02.948Z,61.40
2022-12-03T21:12:30.887Z,63.50
2022-12-03T21:14:58.765Z,61.00
2022-12-03T21:17:29.655Z,57.00
2022-12-03T21:19:57.744Z,57.20
2022-12-03T21:22:25.839Z,56.70
2022-12-03T21:24:53.865Z,55.60
2022-12-03T21:27:22.126Z,59.80
2022-12-03T21:29:50.398Z,63.70
2022-12-03T21:32:20.873Z,63.60
2022-12-03T21:34:48.817Z,62.10
2022-12-03T21:37:17.041Z,58.50
2022-12-03T21:39:45.791Z,59.20
2022-12-03T21:42:34.558Z,59.60
2022-12-03T21:45:01.642Z,61.40
2022-12-03T21:47:36.379Z,66.20
2022-12-03T21:50:09.623Z,69.10
2022-12-03T21:52:37.554Z,69.00
2022-12-03T21:55:09.389Z,73.60
2022-12-03T21:57:37.823Z,62.90
2022-12-03T22:00:09.296Z,62.80
2022-12-03T22:02:40.761Z,60.50
2022-12-03T22:05:10.519Z,63.30
2022-12-03T22:07:42.209Z,63.00
2022-12-03T22:10:13.348Z,66.60
2022-12-03T22:14:01.472Z,69.40
2022-12-03T22:16:54.456Z,71.00
2022-12-03T22:21:53.331Z,69.80
2022-12-03T22:24:23.461Z,66.90
2022-12-03T22:26:53.570Z,69.20
2022-12-03T22:29:23.739Z,64.30
2022-12-03T22:31:51.867Z,70.20
2022-12-03T22:34:22.584Z,72.00
2022-12-03T22:36:50.456Z,70.30
2022-12-03T22:39:18.369Z,66.00
2022-12-03T22:41:47.765Z,66.10
2022-12-03T22:44:15.848Z,66.70
2022-12-03T22:46:43.864Z,66.70
2022-12-03T22:49:12.993Z,77.10
2022-12-03T22:51:46.792Z,74.80
2022-12-03T22:54:23.563Z,72.50
2022-12-03T22:59:21.915Z,73.10
2022-12-03T23:01:49.825Z,68.10
2022-12-03T23:04:19.851Z,70.10
2022-12-03T23:06:50.214Z,69.10
2022-12-03T23:09:18.189Z,65.40
2022-12-03T23:11:48.443Z,67.90
2022-12-03T23:14:16.324Z,72.30
2022-12-03T23:17:59.233Z,67.70
2022-12-03T23:20:29.748Z,78.90
2022-12-03T23:22:57.614Z,83.60
2022-12-03T23:25:25.536Z,79.80
2022-12-03T23:27:53.415Z,74.00
2022-12-03T23:30:21.382Z,63.00
2022-12-03T23:32:49.391Z,62.80
2022-12-03T23:35:17.443Z,64.90
2022-12-03T23:37:45.394Z,62.20
2022-12-03T23:40:13.875Z,63.20
2022-12-03T23:42:41.725Z,60.40
2022-12-03T23:45:10.015Z,54.40
2022-12-03T23:47:37.863Z,53.40
2022-12-03T23:50:06.397Z,51.60
2022-12-03T23:52:36.242Z,53.00
2022-12-03T23:55:04.492Z,54.90
2022-12-03T23:57:32.551Z,56.80
